Time;durP1;ratioP1;P1;durP2;ratioP2;P2;SDS_P1;SDS_P2;PMS_P1;PMS_P2;Temp;Humidity;BMP_temperature;BMP_pressure;BME280_temperature;BME280_humidity;BME280_pressure;Samples;Min_cycle;Max_cycle;Signal;HPM_P1;HPM_P2
2023/09/14 00:01:26;;;;;;;;;;;12.30;99.90;;;;;;7318048;19;9645;-76
2023/09/14 00:03:55;;;;;;;;;;;12.30;99.90;;;;;;7318426;19;9222;-76
2023/09/14 00:06:24;;;;;;;;;;;12.40;99.90;;;;;;7321190;19;9465;-75
2023/09/14 00:08:53;;;;;;;;;;;12.40;99.90;;;;;;7322388;19;9635;-76
2023/09/14 00:11:22;;;;;;;;;;;12.40;99.90;;;;;;7317812;19;9449;-76
2023/09/14 00:13:51;;;;;;;;;;;12.40;99.90;;;;;;7319466;19;9564;-75
2023/09/14 00:16:23;;;;;;;;;;;12.50;99.90;;;;;;7319656;19;9764;-75
2023/09/14 00:18:52;;;;;;;;;;;12.50;99.90;;;;;;7320535;19;9495;-75
2023/09/14 00:21:21;;;;;;;;;;;12.50;99.90;;;;;;7320007;19;9533;-75
2023/09/14 00:23:50;;;;;;;;;;;12.60;99.90;;;;;;7322716;19;9261;-75
2023/09/14 00:26:19;;;;;;;;;;;12.60;99.90;;;;;;7320956;19;9336;-76
2023/09/14 00:29:08;;;;;;;;;;;12.60;99.90;;;;;;7319328;19;9253;-75
2023/09/14 00:31:39;;;;;;;;;;;12.60;99.90;;;;;;7320598;19;9377;-75
2023/09/14 00:34:08;;;;;;;;;;;12.60;99.90;;;;;;7320436;19;9356;-76
2023/09/14 00:36:38;;;;;;;;;;;12.60;99.90;;;;;;7321100;19;9637;-75
2023/09/14 00:39:08;;;;;;;;;;;12.50;99.90;;;;;;7322267;19;10732;-76
2023/09/14 00:41:37;;;;;;;;;;;12.50;99.90;;;;;;7321429;19;9590;-75
2023/09/14 00:44:07;;;;;;;;;;;12.60;99.90;;;;;;7322083;19;9419;-75
2023/09/14 00:46:38;;;;;;;;;;;12.50;99.90;;;;;;7315007;19;9242;-75
2023/09/14 00:49:08;;;;;;;;;;;12.50;99.90;;;;;;7318314;19;9253;-76
2023/09/14 00:51:37;;;;;;;;;;;12.50;99.90;;;;;;7318482;19;10218;-76
2023/09/14 00:54:06;;;;;;;;;;;12.60;99.90;;;;;;7319654;19;10391;-76
2023/09/14 00:56:33;;;;;;;;;;;12.60;99.90;;;;;;7319130;19;9199;-76
2023/09/14 00:59:22;;;;;;;;;;;12.60;99.90;;;;;;7319874;19;9284;-76
2023/09/14 01:01:54;;;;;;;;;;;12.60;99.90;;;;;;7319435;19;9318;-75
2023/09/14 01:04:44;;;;;;;;;;;12.70;99.90;;;;;;7317998;19;9427;-76
2023/09/14 01:07:15;;;;;;;;;;;12.70;99.90;;;;;;7314839;19;9397;-76
2023/09/14 01:09:44;;;;;;;;;;;12.70;99.90;;;;;;7321586;19;9505;-76
2023/09/14 01:12:14;;;;;;;;;;;12.70;99.90;;;;;;7319882;19;9301;-76
2023/09/14 01:14:50;;;;;;;;;;;12.70;99.90;;;;;;7319798;19;9311;-75
2023/09/14 01:17:33;;;;;;;;;;;12.60;99.90;;;;;;7312381;19;9261;-75
2023/09/14 01:20:19;;;;;;;;;;;12.50;99.90;;;;;;7316593;19;9299;-76
2023/09/14 01:23:29;;;;;;;;;;;12.40;99.90;;;;;;7319081;19;9258;-75
2023/09/14 01:26:02;;;;;;;;;;;12.30;99.90;;;;;;7321216;19;9439;-75
2023/09/14 01:28:31;;;;;;;;;;;12.40;99.90;;;;;;7319105;19;10412;-75
2023/09/14 01:31:00;;;;;;;;;;;12.40;99.90;;;;;;7318581;19;9152;-76
2023/09/14 01:33:31;;;;;;;;;;;12.40;99.90;;;;;;7318586;19;9368;-75
2023/09/14 01:36:08;;;;;;;;;;;12.40;99.90;;;;;;7312643;19;14109;-76
2023/09/14 01:38:40;;;;;;;;;;;12.50;99.90;;;;;;7320343;19;9425;-75
2023/09/14 01:41:13;;;;;;;;;;;12.50;99.90;;;;;;7316513;19;9231;-76
2023/09/14 01:43:44;;;;;;;;;;;12.50;99.90;;;;;;7319066;19;9336;-75
2023/09/14 01:46:14;;;;;;;;;;;12.40;99.90;;;;;;7325640;19;9431;-75
2023/09/14 01:48:43;;;;;;;;;;;12.50;99.90;;;;;;7323653;19;9607;-76
2023/09/14 01:51:12;;;;;;;;;;;12.40;99.90;;;;;;7319368;19;9515;-75
2023/09/14 01:53:41;;;;;;;;;;;12.50;99.90;;;;;;7322394;19;9225;-76
2023/09/14 01:56:13;;;;;;;;;;;12.50;99.90;;;;;;7318726;19;9514;-76
2023/09/14 01:58:42;;;;;;;;;;;12.50;99.90;;;;;;7320261;19;9246;-75
2023/09/14 02:01:10;;;;;;;;;;;12.60;99.90;;;;;;7318925;19;9264;-75
2023/09/14 02:03:39;;;;;;;;;;;12.60;99.90;;;;;;7317070;19;9234;-76
2023/09/14 02:06:08;;;;;;;;;;;12.60;99.90;;;;;;7320009;19;9223;-76
2023/09/14 02:08:37;;;;;;;;;;;12.60;99.90;;;;;;7320803;19;9371;-74
2023/09/14 02:11:06;;;;;;;;;;;12.60;99.90;;;;;;7319513;19;9238;-74
2023/09/14 02:13:38;;;;;;;;;;;12.50;99.90;;;;;;7320020;19;8944;-74
2023/09/14 02:16:07;;;;;;;;;;;12.50;99.90;;;;;;7309523;19;9180;-74
2023/09/14 02:18:36;;;;;;;;;;;12.50;99.90;;;;;;7311664;19;9217;-74
2023/09/14 02:21:05;;;;;;;;;;;12.50;99.90;;;;;;7319214;19;9224;-74
2023/09/14 02:23:34;;;;;;;;;;;12.50;99.90;;;;;;7320854;19;9306;-74
2023/09/14 02:26:03;;;;;;;;;;;12.50;99.90;;;;;;7315940;19;10486;-74
2023/09/14 02:28:32;;;;;;;;;;;12.60;99.90;;;;;;7316579;19;9631;-74
2023/09/14 02:31:25;;;;;;;;;;;12.60;99.90;;;;;;7314680;19;10130;-74
2023/09/14 02:33:54;;;;;;;;;;;12.70;99.90;;;;;;7319981;19;9403;-74
2023/09/14 02:36:25;;;;;;;;;;;12.50;99.90;;;;;;7314356;19;9360;-74
2023/09/14 02:38:55;;;;;;;;;;;12.60;99.90;;;;;;7318936;19;9303;-74
2023/09/14 02:41:24;;;;;;;;;;;12.60;99.90;;;;;;7320584;19;8944;-74
2023/09/14 02:43:53;;;;;;;;;;;12.60;99.90;;;;;;7319107;19;9238;-73
2023/09/14 02:46:25;;;;;;;;;;;12.60;99.90;;;;;;7316657;19;9335;-74
2023/09/14 02:48:54;;;;;;;;;;;12.60;99.90;;;;;;7313214;19;9360;-74
2023/09/14 02:51:24;;;;;;;;;;;12.60;99.90;;;;;;7319137;19;9135;-74
2023/09/14 02:53:53;;;;;;;;;;;12.60;99.90;;;;;;7308704;19;9542;-73
2023/09/14 02:56:22;;;;;;;;;;;12.60;99.90;;;;;;7311816;19;10130;-74
2023/09/14 02:58:53;;;;;;;;;;;12.60;99.90;;;;;;7314991;19;10316;-74
2023/09/14 03:01:25;;;;;;;;;;;12.60;99.90;;;;;;7312709;19;9276;-74
2023/09/14 03:03:54;;;;;;;;;;;12.60;99.90;;;;;;7318592;19;10262;-73
2023/09/14 03:06:23;;;;;;;;;;;12.60;99.90;;;;;;7315605;19;9411;-74
2023/09/14 03:08:52;;;;;;;;;;;12.60;99.90;;;;;;7318928;19;9342;-74
2023/09/14 03:11:20;;;;;;;;;;;12.60;99.90;;;;;;7317330;19;9293;-74
2023/09/14 03:13:50;;;;;;;;;;;12.50;99.90;;;;;;7318626;19;9260;-74
2023/09/14 03:16:19;;;;;;;;;;;12.50;99.90;;;;;;7314962;19;9019;-74
2023/09/14 03:18:51;;;;;;;;;;;12.50;99.90;;;;;;7318324;19;9357;-74
2023/09/14 03:21:28;;;;;;;;;;;12.50;99.90;;;;;;7312876;19;9597;-74
2023/09/14 03:23:57;;;;;;;;;;;12.50;99.90;;;;;;7315121;19;9189;-74
2023/09/14 03:26:27;;;;;;;;;;;12.50;99.90;;;;;;7316346;19;11400;-74
2023/09/14 03:28:56;;;;;;;;;;;12.50;99.90;;;;;;7317259;19;9302;-73
2023/09/14 03:31:25;;;;;;;;;;;12.40;99.90;;;;;;7313030;19;9509;-74
2023/09/14 03:33:57;;;;;;;;;;;12.50;99.90;;;;;;7314390;19;9485;-74
2023/09/14 03:36:46;;;;;;;;;;;12.40;99.90;;;;;;7314903;19;9575;-74
2023/09/14 03:39:16;;;;;;;;;;;12.40;99.90;;;;;;7270706;19;14231;-74
2023/09/14 03:41:47;;;;;;;;;;;12.30;99.90;;;;;;7317981;19;9226;-74
2023/09/14 03:44:36;;;;;;;;;;;12.20;99.90;;;;;;7317347;19;10901;-74
2023/09/14 03:47:06;;;;;;;;;;;12.30;99.90;;;;;;7318660;19;9273;-74
2023/09/14 03:49:37;;;;;;;;;;;12.20;99.90;;;;;;7323052;19;9233;-74
2023/09/14 03:52:07;;;;;;;;;;;12.20;99.90;;;;;;7318738;19;10870;-74
2023/09/14 03:54:36;;;;;;;;;;;12.10;99.90;;;;;;7324606;19;9272;-74
2023/09/14 03:57:14;;;;;;;;;;;12.10;99.90;;;;;;7318843;19;9273;-74
2023/09/14 03:59:43;;;;;;;;;;;12.10;99.90;;;;;;7321718;19;9233;-74
2023/09/14 04:02:13;;;;;;;;;;;12.10;99.90;;;;;;7322243;19;9449;-74
2023/09/14 04:04:45;;;;;;;;;;;12.10;99.90;;;;;;7317668;19;10603;-74
2023/09/14 04:07:14;;;;;;;;;;;12.00;99.90;;;;;;7320917;19;9170;-74
2023/09/14 04:09:43;;;;;;;;;;;12.00;99.90;;;;;;7317536;19;9257;-74
2023/09/14 04:12:12;;;;;;;;;;;12.10;99.90;;;;;;7318937;19;9301;-74
2023/09/14 04:14:41;;;;;;;;;;;12.10;99.90;;;;;;7322623;19;9287;-74
2023/09/14 04:17:10;;;;;;;;;;;12.00;99.90;;;;;;7320439;19;9390;-73
2023/09/14 04:19:43;;;;;;;;;;;12.00;99.90;;;;;;7319518;19;9218;-74
2023/09/14 04:22:15;;;;;;;;;;;11.80;99.90;;;;;;7322788;19;9564;-74
2023/09/14 04:24:47;;;;;;;;;;;11.80;99.90;;;;;;7319553;19;8944;-74
2023/09/14 04:27:16;;;;;;;;;;;11.80;99.90;;;;;;7320655;19;9314;-73
2023/09/14 04:29:46;;;;;;;;;;;11.70;99.90;;;;;;7321144;19;9283;-73
2023/09/14 04:32:15;;;;;;;;;;;11.80;99.90;;;;;;7317954;19;9502;-73
2023/09/14 04:34:44;;;;;;;;;;;11.70;99.90;;;;;;7318257;19;9515;-73
2023/09/14 04:37:35;;;;;;;;;;;11.60;99.90;;;;;;7319514;19;9175;-74
2023/09/14 04:40:08;;;;;;;;;;;11.60;99.90;;;;;;7321708;19;9665;-73
2023/09/14 04:42:38;;;;;;;;;;;11.60;99.90;;;;;;7321055;19;9229;-74
2023/09/14 04:45:08;;;;;;;;;;;11.50;99.90;;;;;;7322877;19;9170;-75
2023/09/14 04:47:37;;;;;;;;;;;11.50;99.90;;;;;;7318529;19;9280;-73
2023/09/14 04:50:06;;;;;;;;;;;11.40;99.90;;;;;;7316956;19;9225;-73
2023/09/14 04:52:38;;;;;;;;;;;11.30;99.90;;;;;;7317349;19;9225;-74
2023/09/14 04:55:27;;;;;;;;;;;11.30;99.90;;;;;;7317744;19;9479;-73
2023/09/14 04:57:56;;;;;;;;;;;11.30;99.90;;;;;;7321479;19;9254;-73
2023/09/14 05:00:25;;;;;;;;;;;11.20;99.90;;;;;;7317676;19;9288;-73
2023/09/14 05:02:54;;;;;;;;;;;11.20;99.90;;;;;;7316031;19;9162;-74
2023/09/14 05:05:23;;;;;;;;;;;11.10;99.90;;;;;;7314687;19;9158;-73
2023/09/14 05:07:55;;;;;;;;;;;11.10;99.90;;;;;;7320331;19;9245;-73
2023/09/14 05:10:25;;;;;;;;;;;11.20;99.90;;;;;;7314119;19;9839;-73
2023/09/14 05:12:54;;;;;;;;;;;11.00;99.90;;;;;;7321796;19;9179;-74
2023/09/14 05:15:23;;;;;;;;;;;11.00;99.90;;;;;;7321390;19;9335;-73
2023/09/14 05:17:53;;;;;;;;;;;11.10;99.90;;;;;;7321409;19;8944;-74
2023/09/14 05:20:22;;;;;;;;;;;11.10;99.90;;;;;;7322238;19;9459;-73
2023/09/14 05:22:53;;;;;;;;;;;11.00;99.90;;;;;;7319760;19;9266;-73
2023/09/14 05:25:25;;;;;;;;;;;10.90;99.90;;;;;;7319475;19;9463;-74
2023/09/14 05:28:15;;;;;;;;;;;10.90;99.90;;;;;;7314851;19;9178;-73
2023/09/14 05:31:03;;;;;;;;;;;10.90;99.90;;;;;;7306530;19;9533;-73
2023/09/14 05:33:32;;;;;;;;;;;10.90;99.90;;;;;;7318257;19;9487;-73
2023/09/14 05:36:01;;;;;;;;;;;10.90;99.90;;;;;;7320506;19;9289;-73
2023/09/14 05:38:33;;;;;;;;;;;10.90;99.90;;;;;;7317777;19;9467;-75
2023/09/14 05:41:23;;;;;;;;;;;10.90;99.90;;;;;;7308189;19;9322;-82
2023/09/14 05:43:52;;;;;;;;;;;11.00;99.90;;;;;;7307251;19;9157;-75
2023/09/14 05:46:21;;;;;;;;;;;11.00;99.90;;;;;;7313337;19;10714;-86
2023/09/14 05:48:50;;;;;;;;;;;11.10;99.90;;;;;;7316523;19;10135;-73
2023/09/14 05:51:19;;;;;;;;;;;11.10;99.90;;;;;;7307882;19;9236;-73
2023/09/14 05:53:50;;;;;;;;;;;11.10;99.90;;;;;;7308883;19;9267;-72
2023/09/14 05:56:39;;;;;;;;;;;11.10;99.90;;;;;;7311380;19;9217;-74
2023/09/14 05:59:08;;;;;;;;;;;11.20;99.90;;;;;;7304841;19;9261;-73
2023/09/14 06:01:38;;;;;;;;;;;11.20;99.90;;;;;;7307462;19;9610;-72
2023/09/14 06:04:07;;;;;;;;;;;11.20;99.90;;;;;;7314359;19;9487;-73
2023/09/14 06:06:36;;;;;;;;;;;11.20;99.90;;;;;;7317729;19;8997;-73
2023/09/14 06:09:08;;;;;;;;;;;11.30;99.90;;;;;;7315458;19;9182;-72
2023/09/14 06:11:37;;;;;;;;;;;11.40;99.90;;;;;;7304331;19;9731;-72
2023/09/14 06:14:26;;;;;;;;;;;11.40;99.90;;;;;;7285379;19;10026;-73
2023/09/14 06:16:56;;;;;;;;;;;11.50;99.90;;;;;;7294789;19;9471;-72
2023/09/14 06:19:25;;;;;;;;;;;11.50;99.90;;;;;;7307675;19;9329;-73
2023/09/14 06:21:55;;;;;;;;;;;11.60;99.90;;;;;;7305614;19;9425;-72
2023/09/14 06:24:26;;;;;;;;;;;11.60;99.90;;;;;;7309451;19;9216;-72
2023/09/14 06:26:57;;;;;;;;;;;11.70;99.90;;;;;;7313209;19;9222;-72
2023/09/14 06:29:27;;;;;;;;;;;11.70;99.90;;;;;;7316393;19;9218;-72
2023/09/14 06:31:56;;;;;;;;;;;11.70;99.90;;;;;;7317795;19;9269;-73
2023/09/14 06:34:45;;;;;;;;;;;11.80;99.90;;;;;;7310687;19;9177;-72
2023/09/14 06:37:14;;;;;;;;;;;11.90;99.90;;;;;;7315462;19;9229;-73
2023/09/14 06:39:45;;;;;;;;;;;11.90;99.90;;;;;;7307073;19;9420;-73
2023/09/14 06:42:15;;;;;;;;;;;12.00;99.90;;;;;;7319314;19;9241;-72
2023/09/14 06:44:44;;;;;;;;;;;12.10;99.90;;;;;;7309178;19;9435;-72
2023/09/14 06:47:13;;;;;;;;;;;12.20;99.90;;;;;;7307209;19;10862;-72
2023/09/14 06:49:42;;;;;;;;;;;12.30;99.90;;;;;;7313064;19;9244;-72
2023/09/14 06:52:11;;;;;;;;;;;12.30;99.90;;;;;;7310815;19;11051;-72
2023/09/14 06:54:40;;;;;;;;;;;12.60;99.90;;;;;;7311855;19;9308;-73
2023/09/14 06:57:11;;;;;;;;;;;12.70;99.90;;;;;;7313180;19;9263;-72
2023/09/14 06:59:40;;;;;;;;;;;12.80;99.90;;;;;;7314186;19;11164;-72
2023/09/14 07:02:30;;;;;;;;;;;13.10;99.90;;;;;;7313723;19;9489;-72
2023/09/14 07:04:59;;;;;;;;;;;13.20;99.90;;;;;;7317079;19;9319;-73
2023/09/14 07:07:28;;;;;;;;;;;13.20;99.90;;;;;;7310647;19;9181;-73
2023/09/14 07:09:57;;;;;;;;;;;13.20;99.90;;;;;;7302311;19;9572;-73
2023/09/14 07:12:28;;;;;;;;;;;13.30;99.90;;;;;;7310484;19;9258;-72
2023/09/14 07:15:17;;;;;;;;;;;13.40;99.90;;;;;;7311700;19;9238;-72
2023/09/14 07:17:46;;;;;;;;;;;13.60;99.90;;;;;;7322921;19;9475;-73
2023/09/14 07:20:15;;;;;;;;;;;13.90;99.90;;;;;;7320695;19;9470;-72
2023/09/14 07:23:04;;;;;;;;;;;14.20;99.90;;;;;;7321802;19;9178;-73
2023/09/14 07:25:33;;;;;;;;;;;14.50;99.90;;;;;;7325495;19;9152;-72
2023/09/14 07:28:05;;;;;;;;;;;14.60;99.90;;;;;;7322798;19;9438;-73
2023/09/14 07:30:37;;;;;;;;;;;14.60;99.90;;;;;;7318817;19;9250;-72
2023/09/14 07:33:07;;;;;;;;;;;14.80;99.90;;;;;;7317749;19;9290;-73
2023/09/14 07:35:36;;;;;;;;;;;15.30;99.90;;;;;;7316790;19;9627;-72
2023/09/14 07:38:07;;;;;;;;;;;15.60;99.90;;;;;;7315410;19;9118;-73
2023/09/14 07:40:36;;;;;;;;;;;15.90;99.90;;;;;;7317025;19;10212;-73
2023/09/14 07:43:28;;;;;;;;;;;16.40;99.90;;;;;;7321736;19;9260;-73
2023/09/14 07:45:57;;;;;;;;;;;16.80;99.90;;;;;;7319015;19;9400;-73
2023/09/14 07:48:26;;;;;;;;;;;16.90;98.40;;;;;;7316437;19;9178;-73
2023/09/14 07:50:55;;;;;;;;;;;17.00;99.90;;;;;;7314368;19;9514;-72
2023/09/14 07:53:24;;;;;;;;;;;17.20;99.90;;;;;;7324143;19;9230;-72
2023/09/14 07:55:55;;;;;;;;;;;17.40;99.90;;;;;;7320910;19;9423;-73
2023/09/14 07:58:24;;;;;;;;;;;17.20;99.40;;;;;;7319579;19;9488;-74
2023/09/14 08:00:55;;;;;;;;;;;17.50;99.90;;;;;;7307577;19;9740;-72
2023/09/14 08:03:25;;;;;;;;;;;17.30;99.80;;;;;;7320235;19;9618;-73
2023/09/14 08:05:54;;;;;;;;;;;17.50;98.00;;;;;;7313765;19;9499;-73
2023/09/14 08:08:23;;;;;;;;;;;17.10;97.80;;;;;;7316023;19;9245;-73
2023/09/14 08:10:53;;;;;;;;;;;16.90;99.90;;;;;;7323424;19;10370;-73
2023/09/14 08:13:23;;;;;;;;;;;16.90;99.90;;;;;;7320955;19;9570;-72
2023/09/14 08:15:55;;;;;;;;;;;17.10;99.90;;;;;;7317324;19;10850;-73
2023/09/14 08:18:24;;;;;;;;;;;17.20;99.20;;;;;;7315355;19;9187;-73
2023/09/14 08:20:54;;;;;;;;;;;17.30;99.90;;;;;;7316627;19;9292;-73
2023/09/14 08:23:23;;;;;;;;;;;17.80;99.90;;;;;;7319353;19;9431;-73
2023/09/14 08:25:52;;;;;;;;;;;17.60;96.90;;;;;;7319813;19;9257;-72
2023/09/14 08:28:22;;;;;;;;;;;17.90;99.90;;;;;;7310435;19;9653;-72
2023/09/14 08:30:54;;;;;;;;;;;17.70;93.90;;;;;;7318733;19;9210;-73
2023/09/14 08:33:23;;;;;;;;;;;17.70;93.70;;;;;;7313867;19;10501;-73
2023/09/14 08:35:53;;;;;;;;;;;18.40;99.60;;;;;;7323179;19;9230;-73
2023/09/14 08:38:25;;;;;;;;;;;18.90;97.60;;;;;;7321088;19;9243;-73
2023/09/14 08:40:56;;;;;;;;;;;19.00;96.70;;;;;;7320956;19;9479;-73
2023/09/14 08:43:27;;;;;;;;;;;19.10;92.40;;;;;;7319342;19;9470;-73
2023/09/14 08:46:00;;;;;;;;;;;19.40;90.30;;;;;;7321091;19;9486;-73
2023/09/14 08:48:33;;;;;;;;;;;19.60;91.30;;;;;;7321359;19;9279;-73
2023/09/14 08:51:03;;;;;;;;;;;19.80;90.40;;;;;;7320823;19;9256;-73
2023/09/14 08:53:34;;;;;;;;;;;19.90;84.10;;;;;;7321375;19;9344;-73
2023/09/14 08:56:04;;;;;;;;;;;19.90;87.70;;;;;;7322874;19;8945;-73
2023/09/14 08:58:36;;;;;;;;;;;20.10;82.00;;;;;;7314298;19;10615;-73
2023/09/14 09:01:13;;;;;;;;;;;20.00;80.10;;;;;;7314492;19;9638;-72
2023/09/14 09:03:42;;;;;;;;;;;19.90;83.70;;;;;;7318764;19;9344;-73
2023/09/14 09:06:11;;;;;;;;;;;19.40;74.40;;;;;;7321107;19;9462;-72
2023/09/14 09:08:41;;;;;;;;;;;19.30;76.30;;;;;;7319642;19;9468;-72
2023/09/14 09:11:10;;;;;;;;;;;19.10;78.20;;;;;;7320256;19;9244;-73
2023/09/14 09:13:45;;;;;;;;;;;18.80;70.80;;;;;;7317072;19;9144;-73
2023/09/14 09:16:17;;;;;;;;;;;18.60;73.50;;;;;;7319491;19;8944;-73
2023/09/14 09:19:10;;;;;;;;;;;18.60;75.90;;;;;;7321847;19;9235;-73
2023/09/14 09:21:43;;;;;;;;;;;18.60;71.00;;;;;;7316615;19;9462;-75
2023/09/14 09:24:15;;;;;;;;;;;18.60;72.70;;;;;;7317065;19;8945;-72
2023/09/14 09:26:44;;;;;;;;;;;18.40;73.90;;;;;;7318394;19;10201;-72
2023/09/14 09:29:18;;;;;;;;;;;18.60;75.60;;;;;;7319088;19;9492;-73
2023/09/14 09:31:52;;;;;;;;;;;19.00;83.20;;;;;;7319543;19;9303;-73
2023/09/14 09:34:28;;;;;;;;;;;19.20;78.70;;;;;;7320374;19;9268;-73
2023/09/14 09:36:59;;;;;;;;;;;19.40;79.60;;;;;;7322340;19;9241;-72
2023/09/14 09:39:28;;;;;;;;;;;19.40;72.90;;;;;;7318115;19;8944;-73
2023/09/14 09:41:57;;;;;;;;;;;18.80;69.80;;;;;;7317977;19;10548;-73
2023/09/14 09:44:27;;;;;;;;;;;18.80;73.90;;;;;;7317323;19;9586;-73
2023/09/14 09:47:01;;;;;;;;;;;18.20;76.80;;;;;;7319039;19;9544;-73
2023/09/14 09:49:33;;;;;;;;;;;18.40;79.20;;;;;;7315204;19;9169;-73
2023/09/14 09:52:03;;;;;;;;;;;18.70;73.00;;;;;;7314471;19;9250;-73
2023/09/14 09:54:35;;;;;;;;;;;19.10;81.50;;;;;;7312555;19;9499;-73
2023/09/14 09:57:05;;;;;;;;;;;19.20;73.10;;;;;;7309828;19;10425;-72
2023/09/14 09:59:34;;;;;;;;;;;19.60;80.70;;;;;;7310212;19;9349;-71
2023/09/14 10:02:07;;;;;;;;;;;19.90;78.30;;;;;;7313804;19;9459;-73
2023/09/14 10:04:36;;;;;;;;;;;20.00;73.90;;;;;;7320817;19;9460;-72
2023/09/14 10:07:08;;;;;;;;;;;19.70;71.60;;;;;;7317910;19;9242;-73
2023/09/14 10:09:38;;;;;;;;;;;19.10;71.90;;;;;;7318275;19;9243;-73
2023/09/14 10:12:11;;;;;;;;;;;19.30;72.90;;;;;;7316927;19;9686;-73
2023/09/14 10:14:43;;;;;;;;;;;19.40;74.20;;;;;;7317787;19;9485;-73
2023/09/14 10:17:24;;;;;;;;;;;19.50;72.20;;;;;;7317139;19;9493;-74
2023/09/14 10:19:54;;;;;;;;;;;19.80;74.10;;;;;;7318665;19;9270;-72
2023/09/14 10:22:25;;;;;;;;;;;20.00;75.70;;;;;;7315058;19;9466;-73
2023/09/14 10:24:54;;;;;;;;;;;20.00;70.00;;;;;;7316836;19;10261;-73
2023/09/14 10:27:24;;;;;;;;;;;20.10;74.20;;;;;;7316449;19;9471;-73
2023/09/14 10:29:54;;;;;;;;;;;20.30;72.30;;;;;;7317877;19;9277;-73
2023/09/14 10:32:28;;;;;;;;;;;20.30;70.10;;;;;;7316348;19;9016;-74
2023/09/14 10:35:17;;;;;;;;;;;19.90;64.90;;;;;;7315341;19;9342;-72
2023/09/14 10:37:47;;;;;;;;;;;20.00;68.00;;;;;;7313465;19;10684;-76
2023/09/14 10:40:17;;;;;;;;;;;20.30;67.60;;;;;;7308935;19;9348;-72
2023/09/14 10:42:46;;;;;;;;;;;19.90;66.20;;;;;;7316920;19;9500;-72
2023/09/14 10:45:17;;;;;;;;;;;19.70;67.50;;;;;;7314067;19;9356;-73
2023/09/14 10:47:53;;;;;;;;;;;19.30;68.50;;;;;;7319518;19;9317;-74
2023/09/14 10:50:24;;;;;;;;;;;19.10;70.20;;;;;;7313038;19;9297;-73
2023/09/14 10:52:55;;;;;;;;;;;18.80;71.10;;;;;;7323880;19;10205;-74
2023/09/14 10:55:27;;;;;;;;;;;18.40;71.40;;;;;;7325036;19;9312;-75
2023/09/14 10:58:17;;;;;;;;;;;18.40;74.30;;;;;;7319685;19;9263;-72
2023/09/14 11:00:48;;;;;;;;;;;18.90;77.10;;;;;;7326247;19;8960;-71
2023/09/14 11:03:20;;;;;;;;;;;18.80;72.60;;;;;;7322267;19;9632;-72
2023/09/14 11:06:10;;;;;;;;;;;18.80;72.90;;;;;;7318560;19;9246;-71
2023/09/14 11:09:04;;;;;;;;;;;18.80;73.50;;;;;;7324307;19;9406;-74
2023/09/14 11:11:54;;;;;;;;;;;18.70;70.50;;;;;;7324440;19;9375;-74
2023/09/14 11:14:27;;;;;;;;;;;19.00;69.90;;;;;;7325929;19;9731;-74
2023/09/14 11:16:58;;;;;;;;;;;18.90;67.70;;;;;;7323025;19;9436;-72
2023/09/14 11:19:52;;;;;;;;;;;18.80;71.80;;;;;;7321945;19;9375;-74
2023/09/14 11:22:21;;;;;;;;;;;18.40;73.50;;;;;;7323002;19;9263;-74
2023/09/14 11:24:51;;;;;;;;;;;18.30;71.20;;;;;;7321138;19;8944;-73
2023/09/14 11:27:21;;;;;;;;;;;18.10;70.80;;;;;;7311036;19;9230;-74
2023/09/14 11:29:50;;;;;;;;;;;18.10;74.00;;;;;;7317856;19;9587;-74
2023/09/14 11:32:40;;;;;;;;;;;18.60;76.40;;;;;;7297394;19;9240;-75
2023/09/14 11:35:12;;;;;;;;;;;19.20;73.70;;;;;;7318751;19;9313;-74
2023/09/14 11:37:43;;;;;;;;;;;19.20;70.70;;;;;;7325393;19;9316;-74
2023/09/14 11:40:16;;;;;;;;;;;19.70;75.80;;;;;;7323896;19;9359;-74
2023/09/14 11:43:25;;;;;;;;;;;20.30;75.00;;;;;;7321409;19;9272;-74
2023/09/14 11:46:04;;;;;;;;;;;20.50;69.00;;;;;;7321347;19;10303;-75
2023/09/14 11:48:39;;;;;;;;;;;21.10;67.90;;;;;;7318948;19;9244;-75
2023/09/14 11:51:12;;;;;;;;;;;21.10;68.00;;;;;;7322679;19;9238;-74
2023/09/14 11:53:43;;;;;;;;;;;21.00;67.90;;;;;;7317725;19;10325;-74
2023/09/14 11:56:13;;;;;;;;;;;21.20;65.10;;;;;;7313993;19;9300;-75
2023/09/14 11:58:43;;;;;;;;;;;21.10;68.40;;;;;;7312684;19;9414;-75
2023/09/14 12:01:12;;;;;;;;;;;20.50;65.40;;;;;;7314098;19;9934;-75
2023/09/14 12:04:01;;;;;;;;;;;21.00;69.20;;;;;;7314140;19;9226;-75
2023/09/14 12:06:34;;;;;;;;;;;20.40;65.60;;;;;;7315930;19;9472;-75
2023/09/14 12:09:03;;;;;;;;;;;20.10;66.20;;;;;;7318213;19;9610;-74
2023/09/14 12:11:42;;;;;;;;;;;20.00;66.40;;;;;;7305646;19;9254;-74
2023/09/14 12:14:11;;;;;;;;;;;19.80;70.80;;;;;;7305911;19;10421;-74
2023/09/14 12:16:41;;;;;;;;;;;20.30;72.40;;;;;;7318689;19;9532;-74
2023/09/14 12:19:14;;;;;;;;;;;20.00;65.60;;;;;;7322261;19;9507;-74
2023/09/14 12:21:46;;;;;;;;;;;20.10;66.30;;;;;;7320535;19;9304;-74
2023/09/14 12:24:35;;;;;;;;;;;20.00;64.50;;;;;;7312818;19;9479;-74
2023/09/14 12:27:05;;;;;;;;;;;20.30;66.60;;;;;;7315353;19;9281;-74
2023/09/14 12:29:56;;;;;;;;;;;20.50;68.30;;;;;;7316155;19;9357;-74
2023/09/14 12:32:25;;;;;;;;;;;20.70;69.80;;;;;;7315789;19;9122;-74
2023/09/14 12:34:55;;;;;;;;;;;21.00;70.50;;;;;;7321342;19;9218;-75
2023/09/14 12:37:27;;;;;;;;;;;21.00;68.40;;;;;;7316957;19;9093;-74
2023/09/14 12:39:56;;;;;;;;;;;21.20;68.00;;;;;;7318234;19;9484;-74
2023/09/14 12:42:27;;;;;;;;;;;20.60;65.00;;;;;;7317250;19;9250;-74
2023/09/14 12:45:17;;;;;;;;;;;21.00;68.00;;;;;;7175675;19;2785203;-74
2023/09/14 12:47:48;;;;;;;;;;;21.00;64.70;;;;;;7322757;19;10740;-74
2023/09/14 12:50:20;;;;;;;;;;;21.40;66.80;;;;;;7321815;19;9486;-74
2023/09/14 12:52:53;;;;;;;;;;;21.30;66.60;;;;;;7319828;19;9447;-76
2023/09/14 12:55:22;;;;;;;;;;;21.50;66.40;;;;;;7315534;19;9660;-74
2023/09/14 12:58:12;;;;;;;;;;;21.60;65.00;;;;;;7319104;19;9382;-74
2023/09/14 13:00:42;;;;;;;;;;;21.30;63.90;;;;;;7323244;19;9191;-74
2023/09/14 13:03:30;;;;;;;;;;;21.10;66.80;;;;;;7318078;19;9273;-74
2023/09/14 13:06:19;;;;;;;;;;;20.80;67.30;;;;;;7317712;19;9253;-74
2023/09/14 13:08:54;;;;;;;;;;;21.00;69.00;;;;;;7313973;19;9271;-74
2023/09/14 13:11:25;;;;;;;;;;;20.60;66.40;;;;;;7317693;19;8944;-73
2023/09/14 13:13:55;;;;;;;;;;;20.40;66.50;;;;;;7320224;19;9532;-73
2023/09/14 13:16:25;;;;;;;;;;;19.90;68.60;;;;;;7321114;19;9331;-74
2023/09/14 13:18:54;;;;;;;;;;;19.20;70.40;;;;;;7316475;19;10370;-74
2023/09/14 13:21:23;;;;;;;;;;;18.90;71.40;;;;;;7318151;19;9272;-74
2023/09/14 13:23:55;;;;;;;;;;;18.60;74.20;;;;;;7316600;19;9286;-74
2023/09/14 13:26:24;;;;;;;;;;;18.40;79.10;;;;;;7319230;19;9521;-74
2023/09/14 13:28:53;;;;;;;;;;;18.30;76.40;;;;;;7321478;19;9099;-74
2023/09/14 13:31:22;;;;;;;;;;;18.30;75.00;;;;;;7320296;19;9092;-73
2023/09/14 13:33:51;;;;;;;;;;;18.30;79.70;;;;;;7322916;19;9588;-74
2023/09/14 13:36:20;;;;;;;;;;;18.30;78.90;;;;;;7321799;19;8944;-74
2023/09/14 13:38:52;;;;;;;;;;;18.50;79.50;;;;;;7319378;19;9458;-74
2023/09/14 13:41:24;;;;;;;;;;;18.90;75.60;;;;;;7319780;19;9159;-74
2023/09/14 13:43:53;;;;;;;;;;;19.10;74.60;;;;;;7320133;19;9317;-74
2023/09/14 13:46:42;;;;;;;;;;;19.80;76.80;;;;;;7320188;19;9473;-74
2023/09/14 13:49:12;;;;;;;;;;;20.40;75.90;;;;;;7317115;19;9083;-74
2023/09/14 13:51:42;;;;;;;;;;;20.80;73.60;;;;;;7318516;19;9295;-75
2023/09/14 13:54:11;;;;;;;;;;;21.20;73.20;;;;;;7318430;19;9250;-74
2023/09/14 13:56:42;;;;;;;;;;;21.30;67.80;;;;;;7316200;19;9440;-74
2023/09/14 13:59:11;;;;;;;;;;;21.40;70.40;;;;;;7320270;19;9533;-74
2023/09/14 14:01:40;;;;;;;;;;;21.60;70.70;;;;;;7322722;19;9113;-75
2023/09/14 14:04:09;;;;;;;;;;;21.70;69.90;;;;;;7315002;19;9099;-74
2023/09/14 14:06:38;;;;;;;;;;;21.60;67.60;;;;;;7320066;19;9461;-75
2023/09/14 14:09:07;;;;;;;;;;;21.70;68.70;;;;;;7319984;19;9222;-75
2023/09/14 14:11:36;;;;;;;;;;;21.80;67.60;;;;;;7321526;19;9250;-74
2023/09/14 14:14:08;;;;;;;;;;;21.70;67.10;;;;;;7318173;19;9579;-75
2023/09/14 14:16:37;;;;;;;;;;;21.50;66.40;;;;;;7308905;19;9301;-74
2023/09/14 14:19:06;;;;;;;;;;;21.30;66.90;;;;;;7320853;19;9140;-74
2023/09/14 14:21:35;;;;;;;;;;;21.20;67.70;;;;;;7318773;19;9473;-74
2023/09/14 14:24:04;;;;;;;;;;;21.40;69.10;;;;;;7314939;19;9506;-75
2023/09/14 14:26:37;;;;;;;;;;;21.30;67.40;;;;;;7314558;19;10422;-74
2023/09/14 14:29:08;;;;;;;;;;;21.00;66.10;;;;;;7318692;19;9263;-74
2023/09/14 14:31:37;;;;;;;;;;;21.10;68.90;;;;;;7313039;19;9415;-75
2023/09/14 14:34:07;;;;;;;;;;;20.70;67.20;;;;;;7315016;19;9270;-75
2023/09/14 14:36:36;;;;;;;;;;;20.50;67.70;;;;;;7318613;19;9253;-74
2023/09/14 14:39:05;;;;;;;;;;;20.70;69.60;;;;;;7317623;19;9131;-75
2023/09/14 14:41:34;;;;;;;;;;;20.80;71.00;;;;;;7314735;19;9641;-74
2023/09/14 14:44:03;;;;;;;;;;;20.90;70.30;;;;;;7317556;19;9121;-74
2023/09/14 14:46:35;;;;;;;;;;;20.50;67.40;;;;;;7320443;19;9221;-75
2023/09/14 14:49:04;;;;;;;;;;;20.30;68.50;;;;;;7310787;19;9356;-74
2023/09/14 14:51:34;;;;;;;;;;;20.40;69.00;;;;;;7314483;19;9653;-74
2023/09/14 14:54:04;;;;;;;;;;;20.00;71.00;;;;;;7320317;19;9509;-74
2023/09/14 14:56:33;;;;;;;;;;;20.30;70.60;;;;;;7313735;19;9250;-74
2023/09/14 14:59:22;;;;;;;;;;;20.40;71.20;;;;;;7313594;19;9269;-74